Aérodrome :
LOGIN :

S'inscrire | Disclaimer

   EN    FR    IT 

 










Légende :    VFR   VFR Marginal   IFR   IFR Intensif   IFR Très Intensif
Visi : 
Plafond : 
>= 8 km
>= 3000ft
5 à 8 km
1000 à 3000 ft
1500m à 5 km
500 à 1000 ft
800 à 1500m
200 à 500 ft
< 800m
< 200 ft
Symboles :   Orages  Brouillard  Fortes neiges  Fortes précipitations  Vent > 20 kt
SIGMETs :   Divers  Orages  Givrage  Turbulence  Onde Orograph.  Cendres Volcan.






- Altitude de l'aérodrome : 161 ft
- Code IATA : PMF


LIMP - Parma

DERNIER METAR :
  • 200150Z 24003KT CAVOK 09/02 Q1007

METARs EXPIRÉS :
  • 200050Z 29007KT 260V320 CAVOK 11/02 Q1007
  • 192350Z 23014KT 9999 SCT020 13/02 Q1007
  • 192250Z 22015KT CAVOK 13/02 Q1008
  • 192150Z 22013KT CAVOK 13/02 Q1009

TAF TAF LIMP
Valide du 20 à 00h jusqu'au 21 à 00h UTC


192300Z 2000/2024 24012KT CAVOK
BECMG 2004/2006 32011KT
BECMG 2009/2011 07007KT
TEMPO 2013/2017 TSRA



MET'MAP, la Météo Aéronautique d'un coup d'oeil ! - Copyright ORBIFLY Décembre 2007 - Disclaimer

ORBIFLY MET'MAP TEAM :

Programmation & Développement : Alexandra Zaïnal
Sur une idée originale de : Baudouin d'Aumeries
Soutien technique & logistique : Manuel Goepfert
Assistance : Marc-Olivier Méhu




SOURCES & CREDITS :

   NOAA